Terminal Aerodrome Forecast
Issued by NWS

Home | Current Version | Previous Version | Text Only | Print | Product List | Glossary On
Versions: 1 2 3 4 5 6 7 8 9 10 11 12 13 14 15 16
000
FTUS43 KGRB 191100
TAFMTW
TAF
KMTW 191129Z 1912/2012 11009KT P6SM BKN070 BKN150 WS013/13040KT
     FM191400 12012G20KT P6SM SCT070 BKN150
     FM200000 07009KT P6SM SCT035 OVC050
     FM200200 05007KT 5SM -RA SCT012 OVC020
     FM200600 35007KT 3SM -RA BKN009 OVC015=

USA.gov is the U.S. government's official web portal to all federal, state and local government web resources and services.